Time,TemperatureF,DewpointF,PressureIn,WindDirection,WindDirectionDegrees,WindSpeedMPH,WindSpeedGustMPH,Humidity,HourlyPrecipIn,Conditions,Clouds,dailyrainin,SolarRadiationWatts/m^2,SoftwareType,DateUTC
2013-02-08 00:11:00,54.0,24.0,-100.00,South,181,10.0,21.0,31,0.00,,,0.00,0.000000,,2013-02-08 07:11:00,
2013-02-08 00:21:00,54.0,24.0,-100.00,South,181,10.0,21.0,31,0.00,,,0.00,0.000000,,2013-02-08 07:21:00,
2013-02-08 00:31:00,54.0,24.0,-100.00,South,181,10.0,21.0,31,0.00,,,0.00,0.000000,,2013-02-08 07:31:00,
2013-02-08 00:42:00,54.0,24.0,-100.00,South,181,10.0,21.0,31,0.00,,,0.00,0.000000,,2013-02-08 07:42:00,
2013-02-08 00:51:00,54.0,24.0,-100.00,South,181,10.0,21.0,31,0.00,,,0.00,0.000000,,2013-02-08 07:51:00,
2013-02-08 00:52:00,49.0,24.0,-100.00,SSE,154,0.0,18.0,37,0.00,,,0.00,0.000000,,2013-02-08 07:52:00,
2013-02-08 01:11:00,49.0,24.0,-100.00,SSE,154,0.0,18.0,37,0.00,,,0.00,0.000000,,2013-02-08 08:11:00,
2013-02-08 01:21:00,49.0,24.0,-100.00,SSE,154,0.0,18.0,37,0.00,,,0.00,0.000000,,2013-02-08 08:21:00,
2013-02-08 01:32:00,49.0,24.0,-100.00,SSE,154,0.0,18.0,37,0.00,,,0.00,0.000000,,2013-02-08 08:32:00,
2013-02-08 01:41:00,49.0,24.0,-100.00,SSE,154,0.0,18.0,37,0.00,,,0.00,0.000000,,2013-02-08 08:41:00,
2013-02-08 02:21:00,51.0,24.0,-100.00,South,176,11.0,23.0,34,0.00,,,0.00,0.000000,,2013-02-08 09:21:00,
2013-02-08 02:31:00,51.0,24.0,-100.00,South,176,11.0,23.0,34,0.00,,,0.00,0.000000,,2013-02-08 09:31:00,
2013-02-08 02:42:00,51.0,24.0,-100.00,South,176,11.0,23.0,34,0.00,,,0.00,0.000000,,2013-02-08 09:42:00,
2013-02-08 02:51:00,51.0,24.0,-100.00,South,176,11.0,23.0,34,0.00,,,0.00,0.000000,,2013-02-08 09:51:00,
2013-02-08 03:22:00,52.0,27.0,-100.00,South,171,14.0,27.0,37,0.00,,,0.00,0.000000,,2013-02-08 10:22:00,
2013-02-08 03:31:00,52.0,27.0,-100.00,South,171,14.0,27.0,37,0.00,,,0.00,0.000000,,2013-02-08 10:31:00,
2013-02-08 03:41:00,52.0,27.0,-100.00,South,171,14.0,27.0,37,0.00,,,0.00,0.000000,,2013-02-08 10:41:00,
2013-02-08 03:51:00,52.0,27.0,-100.00,South,171,14.0,27.0,37,0.00,,,0.00,0.000000,,2013-02-08 10:51:00,
2013-02-08 03:52:00,51.0,29.0,-100.00,SSW,201,13.0,25.0,42,0.00,,,0.00,0.000000,,2013-02-08 10:52:00,
2013-02-08 04:21:00,51.0,29.0,-100.00,SSW,201,13.0,25.0,42,0.00,,,0.00,0.000000,,2013-02-08 11:21:00,
2013-02-08 04:32:00,51.0,29.0,-100.00,SSW,201,13.0,25.0,42,0.00,,,0.00,0.000000,,2013-02-08 11:32:00,
2013-02-08 04:41:00,51.0,29.0,-100.00,SSW,201,13.0,25.0,42,0.00,,,0.00,0.000000,,2013-02-08 11:41:00,
2013-02-08 04:52:00,48.0,26.0,-100.00,SSW,204,19.0,40.0,42,0.00,,,0.00,0.000000,,2013-02-08 11:52:00,
2013-02-08 05:11:00,48.0,26.0,-100.00,SSW,204,19.0,40.0,42,0.00,,,0.00,0.000000,,2013-02-08 12:11:00,
2013-02-08 05:22:00,48.0,26.0,-100.00,SSW,204,19.0,40.0,42,0.00,,,0.00,0.000000,,2013-02-08 12:22:00,
2013-02-08 05:32:00,48.0,26.0,-100.00,SSW,204,19.0,40.0,42,0.00,,,0.00,0.000000,,2013-02-08 12:32:00,
2013-02-08 05:42:00,48.0,26.0,-100.00,SSW,204,19.0,40.0,42,0.00,,,0.00,0.000000,,2013-02-08 12:42:00,
2013-02-08 06:11:00,47.0,29.0,-100.00,SSW,202,11.0,34.0,50,0.00,,,0.00,0.000000,,2013-02-08 13:11:00,
2013-02-08 06:21:00,47.0,29.0,-100.00,SSW,202,11.0,34.0,50,0.00,,,0.00,0.000000,,2013-02-08 13:21:00,
2013-02-08 06:32:00,47.0,29.0,-100.00,SSW,202,11.0,34.0,50,0.00,,,0.00,0.000000,,2013-02-08 13:32:00,
2013-02-08 06:42:00,47.0,29.0,-100.00,SSW,202,11.0,34.0,50,0.00,,,0.00,0.000000,,2013-02-08 13:42:00,
2013-02-08 06:51:00,47.0,29.0,-100.00,SSW,202,11.0,34.0,50,0.00,,,0.00,0.000000,,2013-02-08 13:51:00,
2013-02-08 06:52:00,42.0,28.0,-100.00,SSW,212,6.0,23.0,57,0.00,,,0.00,0.000000,,2013-02-08 13:52:00,
2013-02-08 07:11:00,42.0,28.0,-100.00,SSW,212,6.0,23.0,57,0.00,,,0.00,0.000000,,2013-02-08 14:11:00,
2013-02-08 07:21:00,42.0,28.0,-100.00,SSW,212,6.0,23.0,57,0.00,,,0.00,0.000000,,2013-02-08 14:21:00,
2013-02-08 07:32:00,42.0,28.0,-100.00,SSW,212,6.0,23.0,57,0.00,,,0.00,0.000000,,2013-02-08 14:32:00,
2013-02-08 07:41:00,42.0,28.0,-100.00,SSW,212,6.0,23.0,57,0.00,,,0.00,0.000000,,2013-02-08 14:41:00,
2013-02-08 08:11:00,42.0,27.0,-100.00,SW,229,9.0,16.0,55,0.00,,,0.00,5.000000,,2013-02-08 15:11:00,
2013-02-08 08:21:00,42.0,27.0,-100.00,SW,229,9.0,16.0,55,0.00,,,0.00,5.000000,,2013-02-08 15:21:00,
2013-02-08 08:32:00,42.0,27.0,-100.00,SW,229,9.0,16.0,55,0.00,,,0.00,5.000000,,2013-02-08 15:32:00,
2013-02-08 08:41:00,42.0,27.0,-100.00,SW,229,9.0,16.0,55,0.00,,,0.00,5.000000,,2013-02-08 15:41:00,
2013-02-08 08:51:00,42.0,27.0,-100.00,SW,229,9.0,16.0,55,0.00,,,0.00,5.000000,,2013-02-08 15:51:00,
2013-02-08 09:21:00,42.0,27.0,-100.00,SW,219,9.0,17.0,54,0.00,,,0.00,154.000000,,2013-02-08 16:21:00,
2013-02-08 09:32:00,42.0,27.0,-100.00,SW,219,9.0,17.0,54,0.00,,,0.00,154.000000,,2013-02-08 16:32:00,
2013-02-08 09:41:00,42.0,27.0,-100.00,SW,219,9.0,17.0,54,0.00,,,0.00,154.000000,,2013-02-08 16:41:00,
2013-02-08 09:51:00,42.0,27.0,-100.00,SW,219,9.0,17.0,54,0.00,,,0.00,154.000000,,2013-02-08 16:51:00,
2013-02-08 09:52:00,45.0,29.0,-100.00,SW,223,12.0,23.0,53,0.00,,,0.00,461.000000,,2013-02-08 16:52:00,
2013-02-08 10:12:00,45.0,29.0,-100.00,SW,223,12.0,23.0,53,0.00,,,0.00,461.000000,,2013-02-08 17:12:00,
2013-02-08 10:22:00,45.0,29.0,-100.00,SW,223,12.0,23.0,53,0.00,,,0.00,461.000000,,2013-02-08 17:22:00,
2013-02-08 10:32:00,45.0,29.0,-100.00,SW,223,12.0,23.0,53,0.00,,,0.00,461.000000,,2013-02-08 17:32:00,
2013-02-08 10:42:00,45.0,29.0,-100.00,SW,223,12.0,23.0,53,0.00,,,0.00,461.000000,,2013-02-08 17:42:00,
2013-02-08 10:52:00,42.0,24.0,-100.00,SW,223,13.0,32.0,49,0.00,,,0.00,503.000000,,2013-02-08 17:52:00,
2013-02-08 11:12:00,42.0,24.0,-100.00,SW,223,13.0,32.0,49,0.00,,,0.00,503.000000,,2013-02-08 18:12:00,
2013-02-08 11:23:00,42.0,24.0,-100.00,SW,223,13.0,32.0,49,0.00,,,0.00,503.000000,,2013-02-08 18:23:00,
2013-02-08 11:33:00,42.0,24.0,-100.00,SW,223,13.0,32.0,49,0.00,,,0.00,503.000000,,2013-02-08 18:33:00,
2013-02-08 11:42:00,42.0,24.0,-100.00,SW,223,13.0,32.0,49,0.00,,,0.00,503.000000,,2013-02-08 18:42:00,
2013-02-08 11:52:00,46.0,25.0,-100.00,SW,214,10.0,28.0,43,0.00,,,0.00,722.000000,,2013-02-08 18:52:00,
2013-02-08 12:22:00,46.0,25.0,-100.00,SW,214,10.0,28.0,43,0.00,,,0.00,722.000000,,2013-02-08 19:22:00,
2013-02-08 12:32:00,46.0,25.0,-100.00,SW,214,10.0,28.0,43,0.00,,,0.00,722.000000,,2013-02-08 19:32:00,
2013-02-08 12:42:00,46.0,25.0,-100.00,SW,214,10.0,28.0,43,0.00,,,0.00,722.000000,,2013-02-08 19:42:00,
2013-02-08 13:11:00,48.0,15.0,-100.00,SW,220,15.0,26.0,26,0.00,,,0.00,841.000000,,2013-02-08 20:11:00,
2013-02-08 13:21:00,48.0,15.0,-100.00,SW,220,15.0,26.0,26,0.00,,,0.00,841.000000,,2013-02-08 20:21:00,
2013-02-08 13:52:00,45.0,13.0,-100.00,SSW,209,14.0,31.0,27,0.00,,,0.00,705.000000,,2013-02-08 20:52:00,
2013-02-08 14:11:00,45.0,13.0,-100.00,SSW,209,14.0,31.0,27,0.00,,,0.00,705.000000,,2013-02-08 21:11:00,
2013-02-08 14:21:00,45.0,13.0,-100.00,SSW,209,14.0,31.0,27,0.00,,,0.00,705.000000,,2013-02-08 21:21:00,
2013-02-08 14:32:00,45.0,13.0,-100.00,SSW,209,14.0,31.0,27,0.00,,,0.00,705.000000,,2013-02-08 21:32:00,
2013-02-08 14:41:00,45.0,13.0,-100.00,SSW,209,14.0,31.0,27,0.00,,,0.00,705.000000,,2013-02-08 21:41:00,
2013-02-08 15:11:00,47.0,14.0,-100.00,SW,217,10.0,23.0,26,0.00,,,0.00,293.000000,,2013-02-08 22:11:00,
2013-02-08 15:21:00,47.0,14.0,-100.00,SW,217,10.0,23.0,26,0.00,,,0.00,293.000000,,2013-02-08 22:21:00,
2013-02-08 15:31:00,47.0,14.0,-100.00,SW,217,10.0,23.0,26,0.00,,,0.00,293.000000,,2013-02-08 22:31:00,
2013-02-08 15:41:00,47.0,14.0,-100.00,SW,217,10.0,23.0,26,0.00,,,0.00,293.000000,,2013-02-08 22:41:00,
2013-02-08 15:51:00,47.0,14.0,-100.00,SW,217,10.0,23.0,26,0.00,,,0.00,293.000000,,2013-02-08 22:51:00,
2013-02-08 15:52:00,44.0,17.0,-100.00,SSW,200,11.0,28.0,33,0.00,,,0.00,285.000000,,2013-02-08 22:52:00,
2013-02-08 16:11:00,44.0,17.0,-100.00,SSW,200,11.0,28.0,33,0.00,,,0.00,285.000000,,2013-02-08 23:11:00,
2013-02-08 16:21:00,44.0,17.0,-100.00,SSW,200,11.0,28.0,33,0.00,,,0.00,285.000000,,2013-02-08 23:21:00,
2013-02-08 16:31:00,44.0,17.0,-100.00,SSW,200,11.0,28.0,33,0.00,,,0.00,285.000000,,2013-02-08 23:31:00,
2013-02-08 16:41:00,44.0,17.0,-100.00,SSW,200,11.0,28.0,33,0.00,,,0.00,285.000000,,2013-02-08 23:41:00,
2013-02-08 16:52:00,39.0,27.0,-100.00,SSW,212,8.0,27.0,63,0.00,,,0.00,48.000000,,2013-02-08 23:52:00,
2013-02-08 17:11:00,39.0,27.0,-100.00,SSW,212,8.0,27.0,63,0.00,,,0.00,48.000000,,2013-02-09 00:11:00,
2013-02-08 17:21:00,39.0,27.0,-100.00,SSW,212,8.0,27.0,63,0.00,,,0.00,48.000000,,2013-02-09 00:21:00,
2013-02-08 17:32:00,39.0,27.0,-100.00,SSW,212,8.0,27.0,63,0.00,,,0.00,48.000000,,2013-02-09 00:32:00,
2013-02-08 17:41:00,39.0,27.0,-100.00,SSW,212,8.0,27.0,63,0.00,,,0.00,48.000000,,2013-02-09 00:41:00,
2013-02-08 17:52:00,38.0,30.0,-100.00,WNW,296,4.0,18.0,72,0.00,,,0.00,28.000000,,2013-02-09 00:52:00,
2013-02-08 18:11:00,38.0,30.0,-100.00,WNW,296,4.0,18.0,72,0.00,,,0.00,28.000000,,2013-02-09 01:11:00,
2013-02-08 18:21:00,38.0,30.0,-100.00,WNW,296,4.0,18.0,72,0.00,,,0.00,28.000000,,2013-02-09 01:21:00,
2013-02-08 18:31:00,38.0,30.0,-100.00,WNW,296,4.0,18.0,72,0.00,,,0.00,28.000000,,2013-02-09 01:31:00,
2013-02-08 18:41:00,38.0,30.0,-100.00,WNW,296,4.0,18.0,72,0.00,,,0.00,28.000000,,2013-02-09 01:41:00,
2013-02-08 18:52:00,34.0,29.0,-100.00,WSW,237,7.0,17.0,83,0.00,,,0.00,1.000000,,2013-02-09 01:52:00,
2013-02-08 19:21:00,34.0,29.0,-100.00,WSW,237,7.0,17.0,83,0.00,,,0.00,1.000000,,2013-02-09 02:21:00,
2013-02-08 19:32:00,34.0,29.0,-100.00,WSW,237,7.0,17.0,83,0.00,,,0.00,1.000000,,2013-02-09 02:32:00,
2013-02-08 19:41:00,34.0,29.0,-100.00,WSW,237,7.0,17.0,83,0.00,,,0.00,1.000000,,2013-02-09 02:41:00,
2013-02-08 20:11:00,35.0,31.0,-100.00,ESE,120,1.0,12.0,86,0.00,,,0.00,0.000000,,2013-02-09 03:11:00,
2013-02-08 20:21:00,35.0,31.0,-100.00,ESE,120,1.0,12.0,86,0.00,,,0.00,0.000000,,2013-02-09 03:21:00,
2013-02-08 20:32:00,35.0,31.0,-100.00,ESE,120,1.0,12.0,86,0.00,,,0.00,0.000000,,2013-02-09 03:32:00,
2013-02-08 20:41:00,35.0,31.0,-100.00,ESE,120,1.0,12.0,86,0.00,,,0.00,0.000000,,2013-02-09 03:41:00,
2013-02-08 20:51:00,35.0,31.0,-100.00,ESE,120,1.0,12.0,86,0.00,,,0.00,0.000000,,2013-02-09 03:51:00,
2013-02-08 21:22:00,34.0,31.0,-100.00,NE,45,0.0,5.0,90,0.00,,,0.00,0.000000,,2013-02-09 04:22:00,
2013-02-08 21:32:00,34.0,31.0,-100.00,NE,45,0.0,5.0,90,0.00,,,0.00,0.000000,,2013-02-09 04:32:00,
2013-02-08 21:42:00,34.0,31.0,-100.00,NE,45,0.0,5.0,90,0.00,,,0.00,0.000000,,2013-02-09 04:42:00,
2013-02-08 21:51:00,34.0,31.0,-100.00,NE,45,0.0,5.0,90,0.00,,,0.00,0.000000,,2013-02-09 04:51:00,
2013-02-08 21:52:00,33.0,31.0,-100.00,ESE,120,1.0,5.0,93,0.00,,,0.00,0.000000,,2013-02-09 04:52:00,
2013-02-08 22:22:00,33.0,31.0,-100.00,ESE,120,1.0,5.0,93,0.00,,,0.00,0.000000,,2013-02-09 05:22:00,
2013-02-08 22:31:00,33.0,31.0,-100.00,ESE,120,1.0,5.0,93,0.00,,,0.00,0.000000,,2013-02-09 05:31:00,
2013-02-08 22:41:00,33.0,31.0,-100.00,ESE,120,1.0,5.0,93,0.00,,,0.00,0.000000,,2013-02-09 05:41:00,
2013-02-08 23:11:00,34.0,33.0,-100.00,SE,134,0.0,5.0,95,0.00,,,0.00,0.000000,,2013-02-09 06:11:00,
2013-02-08 23:21:00,34.0,33.0,-100.00,SE,134,0.0,5.0,95,0.00,,,0.00,0.000000,,2013-02-09 06:21:00,
2013-02-08 23:31:00,34.0,33.0,-100.00,SE,134,0.0,5.0,95,0.00,,,0.00,0.000000,,2013-02-09 06:31:00,
2013-02-08 23:41:00,34.0,33.0,-100.00,SE,134,0.0,5.0,95,0.00,,,0.00,0.000000,,2013-02-09 06:41:00,
2013-02-08 23:51:00,34.0,33.0,-100.00,SE,134,0.0,5.0,95,0.00,,,0.00,0.000000,,2013-02-09 06:51:00,